Time;durP1;ratioP1;P1;durP2;ratioP2;P2;SDS_P1;SDS_P2;PMS_P1;PMS_P2;Temp;Humidity;BMP_temperature;BMP_pressure;BME280_temperature;BME280_humidity;BME280_pressure;Samples;Min_cycle;Max_cycle;Signal;HPM_P1;HPM_P2
2022/03/24 00:01:21;;;;;;;63.68;29.50;;;;;;;5.00;56.56;100651.08;1702007;84;21008;-56
2022/03/24 00:03:50;;;;;;;62.00;30.68;;;;;;;4.97;56.58;100639.17;1701918;84;21511;-56
2022/03/24 00:06:19;;;;;;;62.25;29.48;;;;;;;4.94;56.87;100636.77;1701870;84;21083;-58
2022/03/24 00:08:50;;;;;;;61.45;30.10;;;;;;;4.90;57.00;100638.09;1701820;84;21534;-60
2022/03/24 00:11:20;;;;;;;62.88;30.23;;;;;;;4.89;57.06;100628.74;1701770;84;21007;-57
2022/03/24 00:13:53;;;;;;;60.67;28.77;;;;;;;4.87;57.16;100621.25;1701885;84;21420;-57
2022/03/24 00:16:22;;;;;;;59.20;29.27;;;;;;;4.86;57.15;100630.41;1711573;82;21071;-56
2022/03/24 00:18:53;;;;;;;63.23;28.45;;;;;;;4.82;57.18;100611.37;1743805;81;21090;-57
2022/03/24 00:21:24;;;;;;;59.15;29.57;;;;;;;4.82;57.21;100614.08;1743914;82;21003;-56
2022/03/24 00:23:55;;;;;;;63.05;30.00;;;;;;;4.80;57.42;100607.45;1743960;81;21609;-57
2022/03/24 00:26:24;;;;;;;60.75;29.60;;;;;;;4.78;57.39;100596.75;1743830;82;21028;-56
2022/03/24 00:28:55;;;;;;;59.42;28.50;;;;;;;4.79;57.38;100598.96;1743775;82;21008;-56
2022/03/24 00:31:24;;;;;;;60.23;29.63;;;;;;;4.77;57.68;100592.83;1743900;82;21007;-57
2022/03/24 00:33:55;;;;;;;61.05;29.27;;;;;;;4.76;57.55;100594.70;1743777;81;21016;-57
2022/03/24 00:36:25;;;;;;;64.87;30.30;;;;;;;4.74;57.47;100594.00;1743894;82;21044;-58
2022/03/24 00:38:55;;;;;;;56.02;28.92;;;;;;;4.72;57.53;100583.80;1743719;81;21472;-56
2022/03/24 00:41:24;;;;;;;61.10;30.08;;;;;;;4.70;57.52;100580.39;1743947;82;21052;-58
2022/03/24 00:43:53;;;;;;;61.35;30.52;;;;;;;4.70;57.47;100574.96;1743567;81;21025;-57
2022/03/24 00:46:22;;;;;;;55.83;28.47;;;;;;;4.68;57.31;100572.91;1743830;82;21440;-56
2022/03/24 00:48:53;;;;;;;71.47;30.82;;;;;;;4.67;57.25;100564.92;1743892;81;21443;-56
2022/03/24 00:51:23;;;;;;;65.70;31.73;;;;;;;4.62;57.42;100557.25;1733590;82;21456;-56
2022/03/24 00:53:51;;;;;;;62.25;31.68;;;;;;;4.62;57.25;100554.53;1743820;81;21103;-57
2022/03/24 00:56:21;;;;;;;66.57;31.62;;;;;;;4.61;57.07;100554.19;1743963;82;21345;-56
2022/03/24 00:58:51;;;;;;;65.37;32.30;;;;;;;4.61;57.08;100550.62;1733567;82;21024;-57
2022/03/24 01:01:21;;;;;;;68.40;32.20;;;;;;;4.58;56.97;100546.86;1743786;82;21063;-56
2022/03/24 01:03:53;;;;;;;66.15;32.28;;;;;;;4.53;56.93;100539.15;1743892;82;21020;-58
2022/03/24 01:06:25;;;;;;;60.83;31.80;;;;;;;4.53;56.96;100535.59;1743916;82;21437;-57
2022/03/24 01:08:54;;;;;;;67.55;33.18;;;;;;;4.49;56.93;100533.69;1743980;82;21134;-56
2022/03/24 01:11:23;;;;;;;67.75;33.08;;;;;;;4.46;56.96;100530.78;1743950;82;21083;-57
2022/03/24 01:13:52;;;;;;;62.53;31.15;;;;;;;4.43;57.04;100528.88;1743897;82;21051;-58
2022/03/24 01:16:26;;;;;;;66.12;32.30;;;;;;;4.39;57.14;100528.84;1743988;81;21021;-57
2022/03/24 01:18:57;;;;;;;66.28;31.75;;;;;;;4.37;57.24;100529.00;1744048;81;21016;-56
2022/03/24 01:21:26;;;;;;;64.30;30.82;;;;;;;4.37;57.31;100520.01;1744293;82;20997;-56
2022/03/24 01:23:56;;;;;;;63.02;31.10;;;;;;;4.36;57.37;100520.52;1743958;81;21103;-56
2022/03/24 01:26:26;;;;;;;66.60;32.17;;;;;;;4.33;57.46;100521.33;1744039;82;21020;-56
2022/03/24 01:28:56;;;;;;;66.85;32.23;;;;;;;4.29;57.53;100512.64;1744294;82;21032;-57
2022/03/24 01:31:26;;;;;;;65.62;31.77;;;;;;;4.25;57.52;100509.04;1744069;81;21079;-56
2022/03/24 01:33:55;;;;;;;63.38;31.87;;;;;;;4.20;57.52;100505.44;1743932;82;21264;-58
2022/03/24 01:36:24;;;;;;;66.20;32.65;;;;;;;4.16;57.52;100506.75;1744134;81;21024;-55
2022/03/24 01:38:54;;;;;;;67.45;32.73;;;;;;;4.11;57.63;100497.72;1744005;82;21088;-56
2022/03/24 01:41:23;;;;;;;66.10;32.38;;;;;;;4.08;57.74;100484.47;1743921;82;21016;-56
2022/03/24 01:43:56;;;;;;;70.10;32.28;;;;;;;4.08;57.78;100489.89;1752118;82;21040;-56
2022/03/24 01:46:26;;;;;;;65.40;31.90;;;;;;;4.07;57.78;100491.41;1757286;82;21038;-56
2022/03/24 01:48:55;;;;;;;64.35;33.13;;;;;;;4.07;57.75;100486.84;1757229;82;21055;-55
2022/03/24 01:51:24;;;;;;;71.00;34.60;;;;;;;4.07;57.70;100481.92;1740175;82;21015;-57
2022/03/24 01:53:57;;;;;;;67.90;33.53;;;;;;;4.06;57.69;100480.21;1757148;82;21273;-54
2022/03/24 01:56:24;;;;;;;68.95;34.38;;;;;;;4.04;57.69;100472.73;1757413;82;21038;-57
2022/03/24 01:58:54;;;;;;;69.20;33.40;;;;;;;4.02;57.67;100476.95;1757550;82;21035;-56
2022/03/24 02:01:34;;;;;;;71.95;34.67;;;;;;;4.03;57.59;100480.02;1757279;82;21027;-56
2022/03/24 02:04:07;;;;;;;68.37;32.95;;;;;;;4.04;57.57;100472.73;1757239;82;21048;-56
2022/03/24 02:06:33;;;;;;;70.57;33.90;;;;;;;4.04;57.63;100470.02;1757103;81;21012;-57
2022/03/24 02:09:06;;;;;;;68.72;33.42;;;;;;;4.02;57.72;100464.75;1757515;81;21050;-57
2022/03/24 02:11:37;;;;;;;73.65;33.98;;;;;;;4.01;57.74;100460.34;1757217;81;21051;-56
2022/03/24 02:14:07;;;;;;;69.25;33.38;;;;;;;4.01;57.80;100455.42;1757265;81;21454;-57
2022/03/24 02:16:40;;;;;;;70.72;35.78;;;;;;;4.01;57.79;100446.78;1740513;82;21501;-56
2022/03/24 02:19:21;;;;;;;64.53;33.33;;;;;;;4.00;57.78;100440.16;1624829;88;21043;-55
2022/03/24 02:21:54;;;;;;;68.80;33.10;;;;;;;3.98;57.81;100447.09;1624962;88;21023;-57
2022/03/24 02:24:25;;;;;;;74.40;33.78;;;;;;;3.97;57.77;100446.75;1620288;88;21114;-58
2022/03/24 02:26:59;;;;;;;70.25;33.75;;;;;;;3.95;57.75;100447.41;1604024;88;21162;-55
2022/03/24 02:29:26;;;;;;;68.40;34.00;;;;;;;3.95;57.73;100447.91;1604181;88;21062;-57
2022/03/24 02:31:57;;;;;;;73.83;33.53;;;;;;;3.93;57.70;100446.70;1550227;92;21103;-56
2022/03/24 02:34:40;;;;;;;73.62;34.98;;;;;;;3.91;57.71;100438.38;1550209;92;21103;-56
2022/03/24 02:37:12;;;;;;;65.92;32.33;;;;;;;3.92;57.68;100442.80;1582777;88;21146;-57
2022/03/24 02:39:45;;;;;;;61.85;31.42;;;;;;;3.93;57.64;100439.08;1624988;88;21491;-56
2022/03/24 02:42:18;;;;;;;71.77;33.10;;;;;;;3.89;57.50;100445.27;1625019;88;21507;-57
2022/03/24 02:44:52;;;;;;;70.92;32.90;;;;;;;3.85;57.62;100437.10;1668747;85;21153;-57
2022/03/24 02:47:23;;;;;;;75.22;34.35;;;;;;;3.83;57.62;100435.05;1652274;85;21518;-56
2022/03/24 02:49:54;;;;;;;64.30;31.57;;;;;;;3.82;57.61;100428.78;1673837;86;21064;-56
2022/03/24 02:52:23;;;;;;;63.85;31.27;;;;;;;3.80;57.48;100428.08;1673648;86;21063;-57
2022/03/24 02:54:52;;;;;;;63.08;31.50;;;;;;;3.78;57.46;100435.52;1673737;86;21127;-56
2022/03/24 02:57:22;;;;;;;66.22;32.08;;;;;;;3.72;57.56;100433.41;1740265;82;21491;-57
2022/03/24 02:59:52;;;;;;;60.30;31.10;;;;;;;3.67;57.58;100434.38;1754015;81;21431;-56
2022/03/24 03:02:21;;;;;;;61.83;31.40;;;;;;;3.64;57.80;100435.18;1754067;81;21059;-56
2022/03/24 03:04:53;;;;;;;71.65;32.10;;;;;;;3.61;57.88;100430.06;1754025;82;21450;-56
2022/03/24 03:07:23;;;;;;;67.40;32.25;;;;;;;3.57;57.91;100428.16;1754191;82;21007;-56
2022/03/24 03:09:52;;;;;;;65.85;30.75;;;;;;;3.58;57.97;100422.24;1754097;82;21043;-55
2022/03/24 03:12:22;;;;;;;64.82;31.50;;;;;;;3.60;57.95;100416.17;1754006;82;21513;-57
2022/03/24 03:14:51;;;;;;;62.67;30.25;;;;;;;3.57;57.92;100417.83;1753744;80;21019;-56
2022/03/24 03:17:22;;;;;;;66.75;31.27;;;;;;;3.54;58.05;100407.30;1735453;82;21525;-57
2022/03/24 03:19:51;;;;;;;66.72;30.95;;;;;;;3.51;58.04;100408.45;1754092;82;21012;-56
2022/03/24 03:22:21;;;;;;;58.20;28.80;;;;;;;3.49;58.14;100404.55;1753979;81;21012;-57
2022/03/24 03:24:50;;;;;;;55.50;27.82;;;;;;;3.50;58.13;100398.62;1753730;82;21071;-56
2022/03/24 03:27:19;;;;;;;60.38;28.73;;;;;;;3.47;58.18;100391.66;1753969;81;21024;-57
2022/03/24 03:29:49;;;;;;;62.43;27.55;;;;;;;3.46;58.20;100393.16;1753712;82;21036;-56
2022/03/24 03:32:20;;;;;;;58.78;28.35;;;;;;;3.47;58.25;100396.22;1754190;81;21266;-56
2022/03/24 03:34:49;;;;;;;59.15;27.22;;;;;;;3.45;58.28;100397.73;1753998;81;21468;-57
2022/03/24 03:37:20;;;;;;;55.30;25.27;;;;;;;3.46;58.32;100390.45;1753974;81;21459;-57
2022/03/24 03:39:51;;;;;;;56.63;25.88;;;;;;;3.46;58.26;100397.23;1754036;80;21059;-58
2022/03/24 03:42:21;;;;;;;50.52;24.82;;;;;;;3.42;58.28;100392.62;1753939;82;21063;-56
2022/03/24 03:44:51;;;;;;;51.37;24.72;;;;;;;3.44;58.31;100390.61;1756463;81;21024;-56
2022/03/24 03:47:20;;;;;;;51.60;24.10;;;;;;;3.45;58.27;100387.40;1757153;82;21012;-57
2022/03/24 03:49:49;;;;;;;48.48;23.73;;;;;;;3.44;58.29;100385.70;1757165;82;21059;-57
2022/03/24 03:52:21;;;;;;;52.88;23.87;;;;;;;3.44;58.26;100392.47;1756346;81;20976;-57
2022/03/24 03:54:50;;;;;;;47.65;23.57;;;;;;;3.44;58.28;100402.80;1757144;82;21007;-55
2022/03/24 03:57:24;;;;;;;51.25;25.10;;;;;;;3.45;58.26;100405.00;1757072;82;21058;-56
2022/03/24 03:59:53;;;;;;;60.65;26.77;;;;;;;3.46;58.29;100406.20;1756825;82;21012;-56
2022/03/24 04:02:23;;;;;;;71.75;31.65;;;;;;;3.48;58.34;100406.05;1757189;82;21031;-57
2022/03/24 04:04:53;;;;;;;86.85;36.35;;;;;;;3.54;58.19;100411.36;1757381;82;21067;-57
2022/03/24 04:07:22;;;;;;;77.53;36.38;;;;;;;3.72;57.68;100416.30;1757177;82;21003;-56
2022/03/24 04:09:53;;;;;;;77.87;36.85;;;;;;;3.99;57.11;100408.14;1757164;80;21023;-57
2022/03/24 04:12:22;;;;;;;85.42;40.00;;;;;;;4.20;56.50;100405.10;1757372;82;21000;-57
2022/03/24 04:14:52;;;;;;;78.78;37.63;;;;;;;4.38;55.97;100406.42;1757211;81;21448;-56
2022/03/24 04:17:23;;;;;;;74.77;36.35;;;;;;;4.53;55.43;100398.56;1757357;82;21047;-56
2022/03/24 04:19:51;;;;;;;64.75;33.02;;;;;;;4.67;54.99;100395.30;1757435;82;21008;-56
2022/03/24 04:22:21;;;;;;;71.45;34.20;;;;;;;4.77;54.27;100394.18;1757530;82;21003;-56
2022/03/24 04:24:51;;;;;;;77.78;34.53;;;;;;;4.90;53.73;100399.68;1757277;80;21055;-56
2022/03/24 04:27:22;;;;;;;74.03;34.48;;;;;;;5.04;53.50;100398.56;1757709;82;20968;-60
2022/03/24 04:29:52;;;;;;;69.95;33.63;;;;;;;5.13;53.21;100404.89;1757319;82;21060;-57
2022/03/24 04:32:21;;;;;;;69.90;32.70;;;;;;;5.22;52.96;100403.09;1757510;82;20984;-58
2022/03/24 04:34:50;;;;;;;72.27;34.13;;;;;;;5.27;52.69;100400.23;1757494;82;21036;-56
2022/03/24 04:37:19;;;;;;;73.52;32.40;;;;;;;5.31;52.47;100402.96;1757466;81;21031;-57
2022/03/24 04:39:50;;;;;;;73.25;32.98;;;;;;;5.35;52.25;100415.20;1757454;81;21039;-57
2022/03/24 04:42:20;;;;;;;76.10;33.33;;;;;;;5.38;52.17;100404.52;1757269;82;21438;-56
2022/03/24 04:44:50;;;;;;;64.75;29.45;;;;;;;5.41;52.03;100413.19;1749979;81;21042;-58
2022/03/24 04:47:19;;;;;;;68.22;30.52;;;;;;;5.47;51.88;100418.98;1720453;82;21062;-56
2022/03/24 04:49:49;;;;;;;63.80;29.23;;;;;;;5.49;51.77;100413.72;1749435;82;21046;-57
2022/03/24 04:52:19;;;;;;;66.25;28.57;;;;;;;5.53;51.61;100416.96;1749337;81;21010;-57
2022/03/24 04:54:49;;;;;;;71.20;29.00;;;;;;;5.56;51.56;100422.07;1749305;82;21023;-57
2022/03/24 04:57:17;;;;;;;63.23;28.30;;;;;;;5.56;51.41;100416.13;1749290;82;21043;-56
2022/03/24 04:59:47;;;;;;;66.20;28.85;;;;;;;5.59;51.33;100420.37;1720649;82;21050;-56
2022/03/24 05:02:17;;;;;;;61.98;28.27;;;;;;;5.60;51.18;100416.65;1749485;82;20999;-56
2022/03/24 05:04:48;;;;;;;60.05;28.15;;;;;;;5.61;51.28;100421.92;1749384;82;20967;-56
2022/03/24 05:07:17;;;;;;;60.40;28.10;;;;;;;5.62;51.27;100420.05;1749671;82;21027;-57
2022/03/24 05:09:50;;;;;;;62.17;29.10;;;;;;;5.64;51.27;100419.38;1749214;82;21011;-57
2022/03/24 05:12:18;;;;;;;58.90;28.02;;;;;;;5.64;51.14;100422.95;1749311;80;21023;-57
2022/03/24 05:14:50;;;;;;;59.70;27.50;;;;;;;5.65;51.24;100421.08;1749274;81;21042;-56
2022/03/24 05:17:19;;;;;;;56.92;26.95;;;;;;;5.67;51.17;100423.13;1749204;82;21046;-56
2022/03/24 05:19:48;;;;;;;60.38;28.15;;;;;;;5.68;51.17;100422.11;1749396;82;21014;-57
2022/03/24 05:22:18;;;;;;;60.85;27.75;;;;;;;5.69;51.24;100418.37;1749428;82;21532;-55
2022/03/24 05:24:48;;;;;;;59.27;27.45;;;;;;;5.72;51.21;100430.27;1749240;81;21035;-57
2022/03/24 05:27:17;;;;;;;64.60;27.65;;;;;;;5.72;51.04;100421.61;1749427;82;21019;-57
2022/03/24 05:29:46;;;;;;;61.25;28.20;;;;;;;5.74;51.18;100428.23;1651956;86;21066;-57
2022/03/24 05:32:16;;;;;;;66.20;27.58;;;;;;;5.76;51.21;100423.99;1651967;87;21090;-57
2022/03/24 05:34:48;;;;;;;65.10;28.77;;;;;;;5.79;51.16;100429.95;1652010;87;21034;-57
2022/03/24 05:37:17;;;;;;;64.75;28.12;;;;;;;5.80;51.04;100427.58;1651924;87;21080;-57
2022/03/24 05:39:47;;;;;;;62.30;27.95;;;;;;;5.81;50.97;100429.27;1651819;87;21094;-57
2022/03/24 05:42:15;;;;;;;61.42;27.80;;;;;;;5.86;51.00;100442.41;1651857;87;21066;-57
2022/03/24 05:44:45;;;;;;;60.15;28.65;;;;;;;5.86;50.97;100433.73;1653722;86;21115;-56
2022/03/24 05:47:14;;;;;;;57.73;26.35;;;;;;;5.88;51.05;100438.50;1670130;83;21366;-57
2022/03/24 05:49:44;;;;;;;58.83;25.85;;;;;;;5.92;51.01;100439.91;1718249;82;21007;-57
2022/03/24 05:52:22;;;;;;;53.20;25.85;;;;;;;5.94;50.78;100445.17;1692193;83;21059;-57
2022/03/24 05:54:52;;;;;;;58.85;26.30;;;;;;;5.96;50.80;100448.58;1717989;83;21479;-57
2022/03/24 05:57:23;;;;;;;59.33;27.75;;;;;;;5.97;50.85;100447.05;1717976;83;21411;-57
2022/03/24 05:59:53;;;;;;;65.47;26.15;;;;;;;5.99;50.82;100439.58;1718148;83;20991;-56
2022/03/24 06:02:22;;;;;;;58.05;26.75;;;;;;;6.01;50.73;100439.41;1718242;82;21042;-57
2022/03/24 06:04:52;;;;;;;58.10;26.33;;;;;;;6.01;50.71;100433.45;1717971;83;21054;-57
2022/03/24 06:07:21;;;;;;;63.70;26.62;;;;;;;6.02;50.76;100444.67;1660170;83;21491;-57
2022/03/24 06:09:52;;;;;;;57.83;26.07;;;;;;;6.02;50.73;100442.47;1718169;83;21011;-56
2022/03/24 06:12:22;;;;;;;60.80;25.97;;;;;;;6.03;50.79;100435.50;1718289;83;21022;-55
2022/03/24 06:14:54;;;;;;;58.33;25.82;;;;;;;6.08;50.82;100442.31;1717648;83;21035;-56
2022/03/24 06:17:23;;;;;;;54.03;24.52;;;;;;;6.09;50.74;100438.56;1717914;83;21050;-56
2022/03/24 06:19:53;;;;;;;51.88;24.47;;;;;;;6.11;50.76;100436.53;1717829;83;21447;-57
2022/03/24 06:22:22;;;;;;;54.23;24.70;;;;;;;6.14;50.86;100439.77;1718204;83;21026;-57
2022/03/24 06:24:51;;;;;;;49.25;22.50;;;;;;;6.18;50.85;100441.64;1718140;83;21530;-56
2022/03/24 06:27:20;;;;;;;48.58;22.45;;;;;;;6.21;50.81;100448.95;1718071;82;20982;-57
2022/03/24 06:29:49;;;;;;;49.90;20.82;;;;;;;6.23;50.75;100446.06;1717792;83;21026;-57
2022/03/24 06:32:20;;;;;;;50.05;22.22;;;;;;;6.26;50.53;100444.37;1718094;83;21007;-57
2022/03/24 06:34:52;;;;;;;44.35;21.70;;;;;;;6.28;50.54;100451.85;1717979;83;21090;-59
2022/03/24 06:37:21;;;;;;;45.73;21.23;;;;;;;6.28;50.62;100444.54;1717956;83;21066;-58
2022/03/24 06:39:50;;;;;;;46.55;21.77;;;;;;;6.29;50.64;100448.96;1718209;83;21054;-57
2022/03/24 06:42:20;;;;;;;44.58;20.92;;;;;;;6.32;50.66;100445.05;1718130;83;21086;-57
2022/03/24 06:44:50;;;;;;;48.45;21.40;;;;;;;6.35;50.71;100440.63;1727133;81;21043;-57
2022/03/24 06:47:21;;;;;;;55.38;20.80;;;;;;;6.40;50.62;100445.05;1733470;82;21067;-56
2022/03/24 06:49:51;;;;;;;44.73;20.40;;;;;;;6.44;50.46;100440.13;1743713;81;21022;-56
2022/03/24 06:52:20;;;;;;;51.68;21.27;;;;;;;6.46;50.52;100443.02;1743917;82;21008;-57
2022/03/24 06:54:50;;;;;;;55.05;22.15;;;;;;;6.48;50.40;100438.76;1743949;82;21040;-57
2022/03/24 06:57:21;;;;;;;47.73;20.80;;;;;;;6.50;50.41;100442.16;1744132;82;21055;-57
2022/03/24 06:59:50;;;;;;;54.00;22.35;;;;;;;6.53;50.43;100441.34;1744132;82;21008;-57
2022/03/24 07:02:19;;;;;;;54.53;21.68;;;;;;;6.56;50.37;100439.64;1743847;82;20992;-58
2022/03/24 07:04:50;;;;;;;48.85;20.40;;;;;;;6.59;50.16;100444.74;1743586;81;20988;-57
2022/03/24 07:07:20;;;;;;;42.70;18.98;;;;;;;6.61;50.14;100433.17;1744171;82;21040;-57
2022/03/24 07:09:49;;;;;;;47.08;20.30;;;;;;;6.63;50.14;100439.30;1743840;82;21522;-56
2022/03/24 07:12:22;;;;;;;37.40;17.42;;;;;;;6.66;50.09;100430.78;1733601;82;21494;-57
2022/03/24 07:14:52;;;;;;;39.45;16.45;;;;;;;6.68;50.10;100436.91;1719602;82;21028;-57
2022/03/24 07:17:23;;;;;;;33.08;15.83;;;;;;;6.73;49.81;100439.11;1743887;82;20988;-58
2022/03/24 07:19:53;;;;;;;32.33;15.20;;;;;;;6.75;49.80;100440.30;1743935;82;21047;-57
2022/03/24 07:22:22;;;;;;;28.45;14.07;;;;;;;6.78;49.56;100435.88;1743817;82;21083;-58
2022/03/24 07:24:51;;;;;;;27.85;13.75;;;;;;;6.82;49.35;100435.36;1743868;82;21012;-57
2022/03/24 07:27:22;;;;;;;24.20;11.85;;;;;;;6.83;48.84;100432.12;1743930;82;20984;-55
2022/03/24 07:29:51;;;;;;;28.40;12.07;;;;;;;6.86;48.67;100445.39;1744139;82;21016;-56
2022/03/24 07:32:20;;;;;;;108.47;17.07;;;;;;;6.89;48.68;100439.09;1744166;81;20988;-58
2022/03/24 07:34:49;;;;;;;33.13;14.73;;;;;;;6.92;48.72;100433.80;1743919;82;21043;-56
2022/03/24 07:37:19;;;;;;;29.92;13.88;;;;;;;6.95;48.66;100437.03;1744197;82;21087;-57
2022/03/24 07:39:48;;;;;;;33.70;14.18;;;;;;;6.97;48.68;100436.86;1743849;82;21016;-58
2022/03/24 07:42:16;;;;;;;24.47;12.75;;;;;;;7.00;48.64;100433.79;1744128;82;21016;-59
2022/03/24 07:44:45;;;;;;;26.93;12.80;;;;;;;7.02;48.27;100436.34;1746432;82;21047;-56
2022/03/24 07:47:14;;;;;;;24.67;12.35;;;;;;;7.07;48.27;100430.70;1757221;82;21051;-56
2022/03/24 07:49:43;;;;;;;22.95;11.70;;;;;;;7.09;47.73;100435.98;1757091;82;21116;-56
2022/03/24 07:52:14;;;;;;;27.37;12.03;;;;;;;7.10;47.88;100434.44;1757414;82;21019;-56
2022/03/24 07:55:02;;;;;;;23.45;11.28;;;;;;;7.11;47.79;100427.97;1757149;82;21062;-58
2022/03/24 07:57:30;;;;;;;21.97;11.15;;;;;;;7.13;47.81;100435.45;1757411;82;21489;-57
2022/03/24 08:00:00;;;;;;;26.73;11.18;;;;;;;7.25;47.67;100439.54;1757203;81;21486;-56
2022/03/24 08:02:34;;;;;;;21.95;10.65;;;;;;;7.54;46.99;100435.34;1757382;81;21038;-58
2022/03/24 08:05:08;;;;;;;23.45;11.43;;;;;;;7.94;46.62;100428.33;1740713;82;21023;-56
2022/03/24 08:07:40;;;;;;;18.17;9.95;;;;;;;8.49;45.80;100432.77;1757357;82;21094;-57
2022/03/24 08:10:11;;;;;;;22.75;11.03;;;;;;;9.13;44.31;100422.78;1740606;82;21015;-56
2022/03/24 08:12:41;;;;;;;19.55;10.00;;;;;;;9.63;42.70;100423.88;1757079;82;21079;-57
2022/03/24 08:15:10;;;;;;;26.55;11.70;;;;;;;10.12;41.87;100422.70;1757371;81;21015;-57
2022/03/24 08:17:41;;;;;;;22.58;13.28;;;;;;;10.60;40.59;100421.13;1757140;82;21469;-58
2022/03/24 08:20:11;;;;;;;24.82;12.05;;;;;;;10.96;39.96;100421.52;1757223;82;21012;-59
2022/03/24 08:22:41;;;;;;;31.35;12.40;;;;;;;11.21;39.99;100419.19;1757167;82;21019;-57
2022/03/24 08:25:10;;;;;;;21.55;11.88;;;;;;;11.49;39.10;100412.27;1757169;80;21495;-58
2022/03/24 08:27:39;;;;;;;21.40;12.05;;;;;;;11.83;38.64;100412.80;1757344;82;21027;-57
2022/03/24 08:30:09;;;;;;;20.77;11.10;;;;;;;12.02;37.54;100407.89;1757453;82;21016;-57
2022/03/24 08:32:38;;;;;;;22.30;11.68;;;;;;;12.05;37.22;100407.48;1757071;82;21090;-58
2022/03/24 08:35:09;;;;;;;27.02;11.25;;;;;;;12.02;36.99;100402.41;1757248;82;21003;-59
2022/03/24 08:37:37;;;;;;;16.35;8.93;;;;;;;11.83;36.89;100415.02;1732260;82;21066;-57
2022/03/24 08:40:10;;;;;;;27.50;9.60;;;;;;;11.75;36.73;100413.27;1757238;82;20991;-58
2022/03/24 08:42:39;;;;;;;16.85;8.90;;;;;;;11.94;36.57;100405.34;1757236;82;21059;-57
2022/03/24 08:45:10;;;;;;;16.62;9.75;;;;;;;12.18;36.34;100408.89;1754451;82;21020;-57
2022/03/24 08:47:41;;;;;;;17.30;9.20;;;;;;;12.22;35.39;100411.53;1693667;82;21445;-57
2022/03/24 08:50:12;;;;;;;16.12;9.35;;;;;;;12.19;36.10;100410.58;1733573;82;21039;-58
2022/03/24 08:52:42;;;;;;;19.27;9.38;;;;;;;12.30;36.21;100402.25;1758133;81;21044;-58
2022/03/24 08:55:13;;;;;;;20.02;9.23;;;;;;;12.30;36.01;100411.87;1744097;82;21004;-58
2022/03/24 08:57:43;;;;;;;15.80;8.38;;;;;;;12.32;36.34;100412.50;1733712;82;21075;-58
2022/03/24 09:00:16;;;;;;;16.15;7.47;;;;;;;12.30;35.34;100414.62;1744105;81;21008;-57
2022/03/24 09:02:48;;;;;;;16.97;7.95;;;;;;;11.89;34.94;100411.45;1733798;82;21440;-56
2022/03/24 09:05:18;;;;;;;13.70;7.37;;;;;;;11.47;35.51;100405.62;1733636;82;21001;-58
2022/03/24 09:07:48;;;;;;;26.97;8.58;;;;;;;11.19;36.02;100415.27;1743984;82;21012;-57
2022/03/24 09:10:17;;;;;;;13.98;7.08;;;;;;;10.85;36.04;100412.47;1743912;82;21058;-57
2022/03/24 09:12:47;;;;;;;16.20;7.80;;;;;;;10.53;36.60;100412.52;1673657;85;21206;-58
2022/03/24 09:15:18;;;;;;;16.48;7.85;;;;;;;10.41;36.67;100413.05;1673826;86;21083;-57
2022/03/24 09:17:48;;;;;;;16.35;7.65;;;;;;;10.32;36.77;100426.52;1673928;86;21059;-57
2022/03/24 09:20:21;;;;;;;13.60;7.28;;;;;;;10.23;37.04;100412.63;1673802;85;21107;-58
2022/03/24 09:22:51;;;;;;;16.02;8.45;;;;;;;10.15;37.51;100417.69;1673912;85;21100;-59
2022/03/24 09:25:21;;;;;;;16.75;7.35;;;;;;;10.09;37.86;100410.77;1673667;86;21096;-57
2022/03/24 09:27:52;;;;;;;15.75;7.72;;;;;;;9.95;38.28;100415.77;1673722;86;20996;-58
2022/03/24 09:30:23;;;;;;;14.65;7.62;;;;;;;9.93;37.75;100416.48;1673877;86;21051;-58
2022/03/24 09:32:52;;;;;;;15.60;7.87;;;;;;;9.91;37.66;100413.09;1673869;86;21505;-57
2022/03/24 09:35:21;;;;;;;22.15;8.03;;;;;;;9.88;37.72;100410.75;1673650;86;21011;-57
2022/03/24 09:37:52;;;;;;;15.95;7.58;;;;;;;9.85;37.92;100405.98;1722590;82;21008;-55
2022/03/24 09:40:21;;;;;;;17.30;8.18;;;;;;;9.76;38.32;100424.08;1743949;81;21023;-56
2022/03/24 09:42:51;;;;;;;15.65;8.10;;;;;;;9.71;37.92;100401.36;1744057;82;21089;-56
2022/03/24 09:45:22;;;;;;;18.48;9.85;;;;;;;9.72;38.04;100424.95;1744210;81;21525;-56
2022/03/24 09:47:52;;;;;;;14.90;8.08;;;;;;;9.72;38.18;100416.73;1743941;82;21016;-56
2022/03/24 09:50:22;;;;;;;12.30;7.45;;;;;;;9.68;38.36;100418.69;1743828;82;21052;-58
2022/03/24 09:52:52;;;;;;;23.67;10.93;;;;;;;9.65;38.46;100417.18;1744272;81;21016;-57
2022/03/24 09:55:27;;;;;;;138.77;18.35;;;;;;;9.61;38.44;100419.97;1733906;82;21087;-57
2022/03/24 09:57:57;;;;;;;25.45;11.28;;;;;;;9.50;38.36;100405.41;1744228;81;21057;-58
2022/03/24 10:00:28;;;;;;;21.55;8.85;;;;;;;9.45;38.60;100408.72;1743026;81;21013;-57
2022/03/24 10:03:17;;;;;;;20.02;8.55;;;;;;;9.48;38.85;100417.06;1744142;82;21005;-57
2022/03/24 10:06:07;;;;;;;18.62;8.35;;;;;;;9.55;39.04;100420.73;1758069;81;21028;-57
2022/03/24 10:08:37;;;;;;;24.63;9.88;;;;;;;9.65;38.57;100413.59;1744200;82;21008;-57
2022/03/24 10:11:08;;;;;;;17.30;8.43;;;;;;;9.67;38.21;100416.47;1743919;82;21012;-59
2022/03/24 10:13:54;;;;;;;19.70;10.28;;;;;;;9.66;38.26;100416.66;1744024;81;21092;-57
2022/03/24 10:16:41;;;;;;;21.17;11.80;;;;;;;9.67;38.23;100415.09;1734497;82;21028;-57
2022/03/24 10:19:15;;;;;;;;;;;;;;;9.64;38.25;100425.06;1746554;81;20992;-58
2022/03/24 10:21:48;;;;;;;22.48;10.75;;;;;;;9.57;38.04;100409.08;1743893;82;20180;-58
2022/03/24 10:24:22;;;;;;;23.87;10.58;;;;;;;9.46;38.17;100423.24;1744019;82;21047;-58
2022/03/24 10:27:02;;;;;;;22.42;11.57;;;;;;;9.38;38.63;100412.41;1733690;82;21845;-56
2022/03/24 10:29:33;;;;;;;27.30;11.53;;;;;;;9.41;38.89;100421.59;1757837;81;21052;-56
2022/03/24 10:32:05;;;;;;;23.38;10.45;;;;;;;9.47;38.83;100432.63;1743872;82;21023;-57
2022/03/24 10:34:39;;;;;;;20.37;10.32;;;;;;;9.47;38.13;100424.94;1734018;82;21068;-59
2022/03/24 10:37:17;;;;;;;24.02;13.32;;;;;;;9.39;38.30;100427.77;1743855;82;21020;-59
2022/03/24 10:40:02;;;;;;;30.57;13.53;;;;;;;9.31;38.45;100416.42;1743966;82;21437;-58
2022/03/24 10:42:34;;;;;;;25.45;11.97;;;;;;;9.20;38.84;100416.37;1744269;82;21035;-57
2022/03/24 10:45:20;;;;;;;24.75;11.95;;;;;;;9.23;38.63;100411.05;1744124;81;20996;-57
2022/03/24 10:48:01;;;;;;;30.02;13.05;;;;;;;9.27;38.63;100428.77;1734021;82;21463;-58
2022/03/24 10:50:50;;;;;;;32.17;13.38;;;;;;;9.27;38.47;100433.39;1743912;82;21047;-58
2022/03/24 10:53:20;;;;;;;21.10;11.48;;;;;;;9.24;38.31;100425.56;1733637;82;21083;-57
2022/03/24 10:56:31;;;;;;;21.93;12.75;;;;;;;9.23;38.20;100423.34;1744127;82;21028;-58
2022/03/24 10:59:07;;;;;;;61.60;15.53;;;;;;;9.28;38.13;100417.31;1718849;83;21035;-57
2022/03/24 11:01:36;;;;;;;24.02;11.25;;;;;;;9.34;37.67;100438.44;1718472;83;21078;-59
2022/03/24 11:04:06;;;;;;;21.33;9.55;;;;;;;9.31;36.99;100415.57;1718318;83;21024;-58
2022/03/24 11:06:35;;;;;;;24.27;10.82;;;;;;;9.20;37.26;100424.58;1718488;83;21131;-59
2022/03/24 11:09:04;;;;;;;25.88;12.93;;;;;;;9.08;37.19;100426.05;1718527;83;21548;-59
2022/03/24 11:11:33;;;;;;;27.65;14.50;;;;;;;8.97;37.53;100420.20;1694792;83;21039;-57
2022/03/24 11:14:04;;;;;;;27.37;14.87;;;;;;;8.93;37.96;100424.34;1718470;83;21133;-58
2022/03/24 11:16:34;;;;;;;32.15;17.25;;;;;;;8.91;37.85;100419.05;1718303;83;21487;-58
2022/03/24 11:19:20;;;;;;;23.73;11.97;;;;;;;8.90;37.94;100425.55;1718235;83;21067;-58
2022/03/24 11:21:58;;;;;;;23.60;11.50;;;;;;;8.91;37.59;100420.42;1717693;83;21075;-59
2022/03/24 11:24:28;;;;;;;27.80;11.38;;;;;;;8.88;37.66;100424.89;1718168;83;21075;-58
2022/03/24 11:26:58;;;;;;;25.52;11.75;;;;;;;8.90;37.83;100421.45;1640181;86;21110;-57
2022/03/24 11:29:29;;;;;;;22.52;11.25;;;;;;;8.94;37.68;100421.42;1676993;84;21072;-57
2022/03/24 11:31:57;;;;;;;21.00;11.78;;;;;;;8.96;37.68;100416.61;1701781;83;21067;-55
2022/03/24 11:34:27;;;;;;;24.52;11.78;;;;;;;9.00;37.56;100426.13;1678759;84;21604;-58